createdAt,value
2023-03-24T00:00:26.091Z,31.40
2023-03-24T00:02:56.787Z,31.50
2023-03-24T00:05:28.602Z,32.90
2023-03-24T00:08:02.652Z,31.60
2023-03-24T00:10:34.940Z,34.20
2023-03-24T00:15:36.558Z,32.90
2023-03-24T00:18:10.954Z,30.00
2023-03-24T00:20:41.367Z,29.90
2023-03-24T00:23:11.853Z,31.00
2023-03-24T00:25:45.356Z,28.30
2023-03-24T00:28:18.409Z,29.30
2023-03-24T00:30:53.280Z,30.00
2023-03-24T00:33:22.669Z,24.90
2023-03-24T00:35:51.948Z,26.50
2023-03-24T00:38:21.201Z,27.80
2023-03-24T00:40:51.482Z,28.80
2023-03-24T00:43:20.431Z,27.90
2023-03-24T00:45:52.612Z,29.40
2023-03-24T00:48:24.662Z,26.10
2023-03-24T00:50:54.514Z,25.40
2023-03-24T00:53:26.100Z,26.00
2023-03-24T00:55:55.843Z,24.20
2023-03-24T00:58:25.388Z,28.20
2023-03-24T01:00:56.313Z,26.50
2023-03-24T01:03:27.708Z,25.20
2023-03-24T01:06:03.045Z,26.30
2023-03-24T01:08:32.607Z,29.00
2023-03-24T01:11:01.656Z,27.50
2023-03-24T01:13:34.474Z,29.70
2023-03-24T01:16:03.520Z,28.30
2023-03-24T01:18:32.319Z,28.80
2023-03-24T01:21:01.585Z,27.40
2023-03-24T01:23:31.195Z,28.30
2023-03-24T01:26:00.538Z,27.10
2023-03-24T01:28:29.881Z,26.30
2023-03-24T01:30:58.573Z,27.10
2023-03-24T01:33:27.242Z,27.50
2023-03-24T01:35:56.199Z,25.90
2023-03-24T01:38:25.540Z,25.60
2023-03-24T01:40:55.581Z,26.20
2023-03-24T01:43:27.375Z,26.70
2023-03-24T01:45:58.882Z,27.90
2023-03-24T01:48:35.853Z,25.10
2023-03-24T01:51:07.524Z,28.00
2023-03-24T01:53:37.812Z,25.80
2023-03-24T01:56:07.500Z,25.10
2023-03-24T01:58:43.719Z,25.80
2023-03-24T02:01:32.684Z,27.60
2023-03-24T02:04:21.527Z,29.90
2023-03-24T02:06:51.072Z,31.20
2023-03-24T02:09:21.590Z,35.50
2023-03-24T02:11:50.750Z,39.00
2023-03-24T02:14:21.607Z,37.50
2023-03-24T02:17:10.037Z,27.30
2023-03-24T02:19:51.023Z,27.90
2023-03-24T02:22:36.966Z,26.30
2023-03-24T02:25:21.798Z,25.40
2023-03-24T02:27:54.377Z,25.20
2023-03-24T02:30:32.195Z,27.20
2023-03-24T02:33:06.915Z,29.90
2023-03-24T02:35:48.077Z,27.20
2023-03-24T02:38:42.620Z,25.30
2023-03-24T02:41:30.491Z,27.20
2023-03-24T02:44:11.192Z,29.80
2023-03-24T02:46:54.845Z,35.30
2023-03-24T02:49:28.452Z,35.20
2023-03-24T02:52:10.878Z,33.60
2023-03-24T02:57:34.860Z,28.70
2023-03-24T03:00:31.126Z,27.50
2023-03-24T03:03:34.717Z,25.20
2023-03-24T03:06:14.034Z,25.40
2023-03-24T03:08:43.119Z,26.40
2023-03-24T03:11:13.663Z,26.40
2023-03-24T03:13:54.921Z,27.90
2023-03-24T03:16:34.981Z,25.70
2023-03-24T03:19:10.149Z,28.20
2023-03-24T03:21:42.766Z,27.40
2023-03-24T03:24:27.728Z,28.90
2023-03-24T03:27:04.114Z,28.10
2023-03-24T03:29:35.803Z,26.20
2023-03-24T03:32:08.398Z,26.60
2023-03-24T03:35:09.680Z,28.40
2023-03-24T03:37:44.831Z,32.70
2023-03-24T03:40:18.553Z,28.50
2023-03-24T03:42:49.745Z,29.00
2023-03-24T03:45:20.298Z,28.90
2023-03-24T03:47:49.097Z,29.20
2023-03-24T03:50:18.128Z,29.60
2023-03-24T03:52:49.960Z,31.90
2023-03-24T03:55:19.416Z,32.30
2023-03-24T03:57:54.987Z,29.80
2023-03-24T04:00:33.728Z,31.00
2023-03-24T04:03:44.546Z,31.00
2023-03-24T04:06:54.065Z,32.40
2023-03-24T04:10:08.929Z,33.40
2023-03-24T04:13:13.330Z,32.40
2023-03-24T04:16:24.741Z,32.80
2023-03-24T04:19:18.317Z,39.50
2023-03-24T04:21:55.355Z,48.70
2023-03-24T04:24:37.815Z,43.40
2023-03-24T04:27:16.793Z,39.90
2023-03-24T04:30:23.688Z,35.20
2023-03-24T04:33:07.494Z,34.90
2023-03-24T04:35:44.256Z,37.40
2023-03-24T04:38:26.004Z,36.70
2023-03-24T04:41:20.011Z,34.30
2023-03-24T04:43:57.396Z,32.00
2023-03-24T04:46:30.596Z,34.40
2023-03-24T04:49:09.635Z,35.50
2023-03-24T04:51:40.737Z,34.00
2023-03-24T04:54:15.504Z,31.70
2023-03-24T04:56:53.895Z,33.80
2023-03-24T04:59:43.291Z,32.60
2023-03-24T05:02:12.309Z,33.20
2023-03-24T05:04:58.918Z,32.00
2023-03-24T05:07:37.785Z,31.00
2023-03-24T05:12:48.467Z,32.20
2023-03-24T05:15:55.781Z,27.70
2023-03-24T05:18:34.613Z,32.10
2023-03-24T05:21:04.283Z,28.90
2023-03-24T05:23:32.918Z,28.60
2023-03-24T05:26:03.313Z,29.80
2023-03-24T05:28:33.492Z,27.70
2023-03-24T05:31:02.222Z,28.00
2023-03-24T05:33:44.948Z,28.10
2023-03-24T05:36:16.450Z,27.00
2023-03-24T05:38:48.984Z,29.10
2023-03-24T05:41:17.909Z,26.20
2023-03-24T05:43:46.647Z,25.80
2023-03-24T05:46:16.971Z,27.70
2023-03-24T05:48:47.141Z,30.20
2023-03-24T05:51:24.136Z,25.90
2023-03-24T05:54:00.042Z,28.60
2023-03-24T05:56:49.374Z,27.90
2023-03-24T05:59:18.320Z,25.90
2023-03-24T06:02:04.068Z,28.40
2023-03-24T06:04:57.854Z,28.60
2023-03-24T06:07:30.964Z,25.70
2023-03-24T06:10:05.112Z,24.20
2023-03-24T06:12:45.896Z,24.60
2023-03-24T06:15:17.773Z,24.40
2023-03-24T06:17:55.854Z,24.70
2023-03-24T06:20:29.426Z,25.40
2023-03-24T06:23:09.181Z,24.60
2023-03-24T06:25:50.996Z,27.10
2023-03-24T06:28:30.593Z,23.80
2023-03-24T06:31:15.267Z,25.20
2023-03-24T06:33:46.047Z,24.90
2023-03-24T06:36:15.111Z,26.30
2023-03-24T06:41:21.844Z,22.30
2023-03-24T06:43:59.509Z,24.50
2023-03-24T06:46:28.521Z,24.70
2023-03-24T06:48:57.426Z,25.90
2023-03-24T06:51:28.128Z,23.70
2023-03-24T06:53:58.323Z,28.10
2023-03-24T06:56:28.548Z,23.80
2023-03-24T06:58:59.921Z,25.10
2023-03-24T07:01:35.448Z,23.70
2023-03-24T07:04:17.740Z,26.90
2023-03-24T07:07:17.615Z,22.70
2023-03-24T07:09:50.960Z,21.60
2023-03-24T07:12:20.115Z,23.50
2023-03-24T07:14:50.703Z,24.70
2023-03-24T07:17:21.570Z,26.20
2023-03-24T07:20:10.400Z,23.40
2023-03-24T07:22:51.271Z,21.70
2023-03-24T07:25:26.580Z,24.60
2023-03-24T07:28:03.943Z,23.10
2023-03-24T07:30:40.898Z,21.20
2023-03-24T07:33:13.946Z,24.10
2023-03-24T07:35:46.091Z,23.00
2023-03-24T07:38:16.536Z,24.10
2023-03-24T07:40:46.517Z,18.40
2023-03-24T07:43:15.876Z,20.50
2023-03-24T07:46:14.089Z,18.10
2023-03-24T07:48:43.158Z,18.10
2023-03-24T07:51:12.265Z,17.70
2023-03-24T07:53:54.511Z,17.90
2023-03-24T07:56:31.949Z,19.00
2023-03-24T07:59:01.621Z,18.70
2023-03-24T08:01:52.639Z,16.40
2023-03-24T08:04:35.365Z,16.60
2023-03-24T08:07:19.197Z,17.40
2023-03-24T08:09:48.077Z,17.40
2023-03-24T08:12:20.459Z,18.60
2023-03-24T08:14:49.797Z,14.90
2023-03-24T08:17:18.292Z,13.30
2023-03-24T08:20:00.222Z,13.20
2023-03-24T08:22:31.237Z,10.60
2023-03-24T08:24:59.768Z,11.20
2023-03-24T08:27:30.737Z,11.40
2023-03-24T08:29:59.267Z,12.40
2023-03-24T08:32:27.818Z,12.30
2023-03-24T08:34:58.292Z,12.50
2023-03-24T08:37:26.919Z,16.20
2023-03-24T08:39:58.939Z,14.70
2023-03-24T08:42:27.575Z,15.50
2023-03-24T08:44:56.177Z,10.70
2023-03-24T08:47:24.794Z,9.70
2023-03-24T08:49:57.757Z,10.70
2023-03-24T08:52:27.019Z,10.40
2023-03-24T08:54:55.806Z,10.50
2023-03-24T08:57:31.921Z,10.60
2023-03-24T09:00:01.135Z,10.20
2023-03-24T09:02:29.838Z,11.00
2023-03-24T09:05:03.414Z,11.90
2023-03-24T09:07:32.806Z,9.90
2023-03-24T09:10:01.771Z,10.90
2023-03-24T09:12:34.085Z,11.10
2023-03-24T09:15:03.389Z,10.10
2023-03-24T09:17:32.736Z,10.20
2023-03-24T09:20:02.258Z,10.00
2023-03-24T09:22:33.284Z,9.80
2023-03-24T09:25:01.909Z,9.70
2023-03-24T09:27:32.949Z,9.90
2023-03-24T09:30:01.667Z,10.00
2023-03-24T09:32:34.181Z,9.70
2023-03-24T09:35:02.910Z,9.70
2023-03-24T09:37:32.505Z,9.30
2023-03-24T09:40:01.758Z,9.60
2023-03-24T09:42:37.762Z,9.30
2023-03-24T09:45:17.866Z,10.00
2023-03-24T09:47:56.856Z,10.60
2023-03-24T09:50:38.469Z,10.20
2023-03-24T09:53:10.267Z,10.20
2023-03-24T09:55:39.659Z,10.50
2023-03-24T09:58:09.295Z,9.60
2023-03-24T10:00:38.791Z,9.70
2023-03-24T10:03:15.467Z,9.00
2023-03-24T10:06:14.254Z,10.30
2023-03-24T10:08:44.811Z,9.10
2023-03-24T10:11:26.469Z,10.00
2023-03-24T10:14:03.129Z,9.90
2023-03-24T10:17:02.270Z,9.50
2023-03-24T10:19:33.730Z,9.10
2023-03-24T10:22:26.067Z,7.90
2023-03-24T10:25:21.740Z,10.00
2023-03-24T10:27:58.207Z,9.90
2023-03-24T10:30:34.628Z,9.00
2023-03-24T10:33:04.166Z,9.00
2023-03-24T10:35:35.625Z,8.50
2023-03-24T10:38:09.545Z,8.50
2023-03-24T10:40:38.593Z,9.70
2023-03-24T10:43:09.607Z,8.60
2023-03-24T10:45:44.381Z,6.90
2023-03-24T10:48:14.456Z,8.70
2023-03-24T10:50:44.818Z,8.20
2023-03-24T10:53:19.993Z,7.60
2023-03-24T10:55:51.173Z,7.50
2023-03-24T10:58:40.870Z,7.00
2023-03-24T11:01:26.562Z,6.80
2023-03-24T11:04:07.413Z,7.20
2023-03-24T11:06:36.718Z,6.70
2023-03-24T11:09:19.184Z,7.20
2023-03-24T11:11:48.231Z,6.50
2023-03-24T11:14:25.664Z,6.10
2023-03-24T11:17:03.736Z,6.30
2023-03-24T11:19:33.071Z,8.80
2023-03-24T11:22:03.867Z,7.60
2023-03-24T11:24:38.262Z,6.00
2023-03-24T11:27:07.164Z,6.30
2023-03-24T11:29:39.011Z,5.90
2023-03-24T11:32:16.899Z,6.60
2023-03-24T11:34:47.503Z,8.40
2023-03-24T11:37:22.640Z,5.70
2023-03-24T11:40:19.260Z,6.90
2023-03-24T11:43:00.801Z,5.40
2023-03-24T11:45:40.399Z,4.90
2023-03-24T11:48:41.252Z,5.50
2023-03-24T11:51:12.882Z,5.20
2023-03-24T11:53:46.676Z,5.80
2023-03-24T11:56:37.260Z,8.40
2023-03-24T11:59:34.058Z,5.70
2023-03-24T12:02:10.782Z,6.50
2023-03-24T12:04:46.844Z,5.10
2023-03-24T12:07:33.109Z,5.50
2023-03-24T12:10:07.660Z,6.80
2023-03-24T12:13:29.644Z,5.60
2023-03-24T12:16:04.786Z,5.20
2023-03-24T12:18:48.149Z,5.40
2023-03-24T12:21:46.273Z,5.00
2023-03-24T12:24:49.731Z,4.80
2023-03-24T12:27:48.967Z,5.20
2023-03-24T12:30:36.892Z,5.10
2023-03-24T12:33:26.984Z,5.10
2023-03-24T12:35:59.328Z,4.60
2023-03-24T12:39:07.927Z,4.90
2023-03-24T12:41:37.164Z,4.00
2023-03-24T12:44:06.120Z,4.30
2023-03-24T12:47:19.608Z,4.80
2023-03-24T12:49:54.851Z,4.30
2023-03-24T12:52:31.454Z,3.90
2023-03-24T12:55:38.833Z,4.90
2023-03-24T12:58:30.877Z,4.20
2023-03-24T13:03:48.849Z,4.10
2023-03-24T13:06:23.312Z,4.10
2023-03-24T13:09:34.893Z,4.50
2023-03-24T13:12:07.988Z,4.00
2023-03-24T13:15:10.151Z,4.30
2023-03-24T13:18:06.361Z,4.30
2023-03-24T13:20:57.112Z,4.00
2023-03-24T13:23:30.938Z,4.00
2023-03-24T13:26:06.617Z,4.00
2023-03-24T13:28:44.277Z,3.70
2023-03-24T13:31:14.552Z,4.00
2023-03-24T13:33:44.603Z,4.10
2023-03-24T13:36:47.617Z,5.70
2023-03-24T13:39:19.053Z,4.80
2023-03-24T13:41:51.291Z,5.10
2023-03-24T13:47:03.137Z,4.50
2023-03-24T13:49:32.089Z,4.10
2023-03-24T13:52:03.997Z,4.60
2023-03-24T13:54:39.673Z,4.80
2023-03-24T13:57:15.198Z,4.00
2023-03-24T14:00:19.029Z,4.80
2023-03-24T14:03:03.913Z,4.40
2023-03-24T14:06:00.492Z,4.70
2023-03-24T14:08:52.169Z,4.80
2023-03-24T14:11:34.716Z,3.70
2023-03-24T14:14:13.538Z,3.70
2023-03-24T14:16:42.926Z,5.20
2023-03-24T14:19:24.750Z,3.80
2023-03-24T14:22:13.422Z,3.60
2023-03-24T14:24:44.271Z,3.90
2023-03-24T14:27:34.765Z,3.90
2023-03-24T14:30:14.965Z,4.10
2023-03-24T14:32:49.036Z,4.10
2023-03-24T14:35:26.526Z,39.60
2023-03-24T14:38:26.393Z,17.60
2023-03-24T14:40:58.948Z,80.70
2023-03-24T14:43:49.097Z,15.50
2023-03-24T14:46:20.940Z,25.00
2023-03-24T14:49:13.148Z,38.30
2023-03-24T14:51:49.052Z,52.30
2023-03-24T14:54:42.526Z,14.00
2023-03-24T14:59:59.326Z,5.20
2023-03-24T15:02:34.408Z,7.30
2023-03-24T15:05:15.782Z,11.10
2023-03-24T15:07:46.391Z,12.30
2023-03-24T15:10:19.473Z,42.20
2023-03-24T15:12:49.436Z,35.00
2023-03-24T15:15:24.604Z,27.00
2023-03-24T15:17:53.491Z,44.90
2023-03-24T15:20:24.034Z,12.60
2023-03-24T15:22:55.490Z,16.40
2023-03-24T15:25:28.356Z,16.60
2023-03-24T15:27:58.604Z,16.10
2023-03-24T15:30:28.399Z,67.00
2023-03-24T15:32:57.114Z,79.30
2023-03-24T15:35:25.826Z,103.10
2023-03-24T15:37:56.692Z,98.30
2023-03-24T15:40:29.808Z,65.70
2023-03-24T15:43:03.269Z,174.10
2023-03-24T15:45:51.059Z,124.70
2023-03-24T15:48:24.784Z,211.60
2023-03-24T15:51:01.452Z,201.70
2023-03-24T15:53:33.481Z,208.00
2023-03-24T15:56:26.311Z,97.20
2023-03-24T15:58:57.702Z,63.00
2023-03-24T16:01:36.622Z,48.00
2023-03-24T16:04:06.563Z,74.40
2023-03-24T16:06:36.232Z,55.20
2023-03-24T16:09:10.874Z,46.40
2023-03-24T16:11:41.680Z,71.30
2023-03-24T16:14:28.647Z,55.60
2023-03-24T16:16:59.673Z,27.50
2023-03-24T16:19:30.002Z,16.50
2023-03-24T16:21:59.990Z,23.60
2023-03-24T16:24:29.730Z,40.70
2023-03-24T16:26:58.752Z,49.80
2023-03-24T16:29:27.126Z,32.80
2023-03-24T16:31:56.743Z,40.60
2023-03-24T16:34:25.772Z,74.50
2023-03-24T16:36:54.660Z,78.80
2023-03-24T16:39:25.074Z,91.90
2023-03-24T16:41:54.555Z,78.40
2023-03-24T16:44:24.323Z,128.10
2023-03-24T16:46:54.113Z,125.00
2023-03-24T16:49:24.349Z,132.60
2023-03-24T16:51:54.074Z,133.60
2023-03-24T16:54:26.104Z,75.20
2023-03-24T16:56:55.485Z,52.70
2023-03-24T16:59:24.809Z,40.90
2023-03-24T17:01:56.361Z,30.50
2023-03-24T17:04:27.679Z,25.10
2023-03-24T17:06:57.775Z,24.80
2023-03-24T17:09:28.784Z,20.40
2023-03-24T17:11:57.629Z,21.20
2023-03-24T17:14:33.126Z,23.00
2023-03-24T17:17:04.181Z,26.40
2023-03-24T17:19:33.281Z,24.80
2023-03-24T17:22:06.932Z,41.40
2023-03-24T17:24:38.324Z,59.30
2023-03-24T17:27:18.966Z,59.30
2023-03-24T17:29:47.645Z,135.50
2023-03-24T17:32:16.403Z,139.10
2023-03-24T17:34:45.683Z,104.30
2023-03-24T17:37:15.678Z,74.10
2023-03-24T17:39:45.063Z,48.30
2023-03-24T17:42:15.149Z,41.00
2023-03-24T17:44:45.457Z,31.10
2023-03-24T17:47:14.235Z,26.50
2023-03-24T17:50:09.770Z,23.80
2023-03-24T17:52:41.222Z,27.20
2023-03-24T17:55:11.758Z,23.10
2023-03-24T17:57:40.464Z,27.60
2023-03-24T18:00:13.349Z,36.10
2023-03-24T18:02:42.905Z,34.70
2023-03-24T18:05:16.148Z,31.70
2023-03-24T18:07:47.711Z,25.20
2023-03-24T18:10:16.913Z,26.40
2023-03-24T18:12:47.665Z,30.70
2023-03-24T18:15:16.829Z,23.30
2023-03-24T18:17:46.242Z,15.80
2023-03-24T18:20:18.890Z,11.00
2023-03-24T18:22:47.687Z,11.40
2023-03-24T18:25:16.718Z,10.30
2023-03-24T18:27:46.238Z,10.80
2023-03-24T18:30:15.722Z,11.70
2023-03-24T18:32:44.691Z,14.10
2023-03-24T18:35:16.680Z,14.70
2023-03-24T18:37:46.194Z,14.90
2023-03-24T18:40:16.098Z,14.50
2023-03-24T18:42:45.742Z,14.40
2023-03-24T18:45:17.806Z,16.60
2023-03-24T18:47:48.582Z,22.60
2023-03-24T18:50:17.825Z,23.90
2023-03-24T18:55:20.986Z,15.70
2023-03-24T18:57:49.773Z,13.90
2023-03-24T19:00:21.999Z,14.00
2023-03-24T19:02:52.755Z,14.30
2023-03-24T19:05:22.215Z,14.90
2023-03-24T19:07:52.195Z,31.20
2023-03-24T19:10:21.013Z,83.90
2023-03-24T19:12:50.117Z,71.50
2023-03-24T19:15:18.861Z,34.70
2023-03-24T19:17:47.126Z,19.30
2023-03-24T19:20:18.715Z,16.70
2023-03-24T19:22:47.576Z,18.30
2023-03-24T19:25:16.021Z,14.80
2023-03-24T19:27:48.018Z,13.70
2023-03-24T19:30:18.444Z,13.60
2023-03-24T19:32:48.201Z,13.10
2023-03-24T19:35:22.336Z,11.70
2023-03-24T19:37:51.149Z,13.50
2023-03-24T19:40:23.710Z,12.90
2023-03-24T19:42:52.545Z,12.20
2023-03-24T19:45:21.185Z,11.30
2023-03-24T19:47:50.691Z,12.60
2023-03-24T19:50:20.325Z,10.70
2023-03-24T19:52:51.927Z,13.60
2023-03-24T19:55:22.162Z,13.20
2023-03-24T19:57:51.206Z,11.60
2023-03-24T20:00:20.663Z,11.40
2023-03-24T20:02:49.550Z,11.50
2023-03-24T20:05:18.411Z,12.20
2023-03-24T20:07:48.182Z,12.40
2023-03-24T20:10:17.034Z,12.90
2023-03-24T20:12:46.446Z,11.90
2023-03-24T20:15:15.764Z,13.10
2023-03-24T20:17:44.600Z,12.30
2023-03-24T20:20:15.811Z,12.40
2023-03-24T20:22:48.857Z,12.10
2023-03-24T20:25:18.240Z,11.80
2023-03-24T20:27:48.073Z,12.60
2023-03-24T20:30:17.763Z,13.80
2023-03-24T20:32:48.518Z,13.00
2023-03-24T20:35:18.782Z,12.60
2023-03-24T20:37:47.619Z,14.50
2023-03-24T20:40:16.471Z,12.50
2023-03-24T20:42:46.778Z,13.40
2023-03-24T20:45:15.757Z,12.40
2023-03-24T20:47:44.796Z,15.40
2023-03-24T20:50:14.080Z,11.50
2023-03-24T20:52:47.759Z,12.20
2023-03-24T20:55:36.638Z,13.10
2023-03-24T20:58:08.597Z,12.20
2023-03-24T21:00:42.212Z,14.80
2023-03-24T21:03:11.711Z,14.90
2023-03-24T21:05:41.199Z,14.00
2023-03-24T21:08:09.876Z,16.00
2023-03-24T21:10:45.244Z,15.10
2023-03-24T21:13:17.246Z,17.00
2023-03-24T21:15:46.410Z,18.90
2023-03-24T21:18:18.339Z,20.30
2023-03-24T21:20:55.417Z,19.40
2023-03-24T21:23:24.784Z,22.60
2023-03-24T21:25:56.427Z,24.00
2023-03-24T21:28:28.407Z,24.40
2023-03-24T21:31:06.456Z,22.60
2023-03-24T21:33:40.262Z,22.30
2023-03-24T21:36:10.119Z,21.20
2023-03-24T21:38:39.309Z,23.70
2023-03-24T21:41:07.991Z,24.30
2023-03-24T21:43:37.507Z,23.30
2023-03-24T21:46:07.041Z,22.20
2023-03-24T21:48:40.288Z,22.80
2023-03-24T21:51:10.320Z,20.10
2023-03-24T21:53:38.880Z,21.50
2023-03-24T21:56:08.023Z,20.20
2023-03-24T21:58:37.874Z,22.60
2023-03-24T22:01:07.341Z,30.30
2023-03-24T22:03:37.493Z,28.00
2023-03-24T22:06:10.759Z,22.70
2023-03-24T22:08:43.876Z,22.30
2023-03-24T22:11:15.681Z,21.60
2023-03-24T22:13:44.479Z,21.00
2023-03-24T22:16:13.818Z,20.80
2023-03-24T22:18:42.626Z,21.40
2023-03-24T22:21:13.945Z,21.50
2023-03-24T22:23:45.123Z,19.90
2023-03-24T22:26:15.581Z,20.50
2023-03-24T22:28:45.561Z,20.30
2023-03-24T22:31:16.950Z,19.70
2023-03-24T22:33:47.733Z,19.30
2023-03-24T22:36:16.937Z,19.50
2023-03-24T22:38:46.290Z,18.20
2023-03-24T22:41:18.698Z,16.40
2023-03-24T22:43:47.667Z,18.30
2023-03-24T22:46:16.592Z,18.10
2023-03-24T22:48:47.350Z,18.20
2023-03-24T22:51:19.382Z,18.20
2023-03-24T22:53:52.684Z,17.30
2023-03-24T22:56:20.868Z,18.50
2023-03-24T22:58:49.100Z,18.50
2023-03-24T23:01:18.135Z,18.10
2023-03-24T23:03:46.640Z,21.30
2023-03-24T23:06:21.572Z,18.80
2023-03-24T23:08:53.732Z,19.80
2023-03-24T23:11:22.263Z,23.40
2023-03-24T23:14:05.516Z,22.00
2023-03-24T23:16:38.024Z,21.50
2023-03-24T23:19:09.826Z,24.00
2023-03-24T23:21:39.769Z,23.10
2023-03-24T23:24:08.561Z,22.10
2023-03-24T23:26:39.453Z,22.20
2023-03-24T23:29:09.913Z,22.00
2023-03-24T23:31:43.366Z,20.20
2023-03-24T23:34:12.167Z,19.90
2023-03-24T23:36:45.182Z,20.60
2023-03-24T23:39:17.590Z,23.10
2023-03-24T23:41:46.754Z,22.20
2023-03-24T23:44:19.770Z,20.80
2023-03-24T23:46:50.760Z,20.80
2023-03-24T23:49:19.419Z,21.20
2023-03-24T23:51:48.179Z,21.70
2023-03-24T23:54:17.824Z,21.90
2023-03-24T23:56:47.402Z,20.10
2023-03-24T23:59:16.109Z,21.00
